createdAt,value
2023-04-07T00:00:24.527Z,0.0000
2023-04-07T00:01:26.415Z,0.0000
2023-04-07T00:02:28.573Z,0.0000
2023-04-07T00:03:30.793Z,0.0000
2023-04-07T00:04:30.915Z,0.0000
2023-04-07T00:05:33.008Z,0.0000
2023-04-07T00:06:35.047Z,0.0000
2023-04-07T00:07:44.938Z,0.0000
2023-04-07T00:08:39.306Z,0.0000
2023-04-07T00:09:41.231Z,0.0000
2023-04-07T00:10:43.113Z,0.0000
2023-04-07T00:11:45.039Z,0.0000
2023-04-07T00:12:46.919Z,0.0000
2023-04-07T00:13:48.815Z,0.0000
2023-04-07T00:14:50.705Z,0.0000
2023-04-07T00:15:52.660Z,0.0000
2023-04-07T00:16:54.561Z,0.0000
2023-04-07T00:17:56.619Z,0.0000
2023-04-07T00:18:58.684Z,0.0000
2023-04-07T00:20:00.612Z,0.0000
2023-04-07T00:21:02.491Z,0.0000
2023-04-07T00:22:04.432Z,0.0000
2023-04-07T00:23:06.278Z,0.0000
2023-04-07T00:24:08.198Z,0.0000
2023-04-07T00:25:10.223Z,0.0000
2023-04-07T00:26:12.107Z,0.0000
2023-04-07T00:27:14.081Z,0.0000
2023-04-07T00:28:16.011Z,0.0000
2023-04-07T00:29:17.911Z,0.0000
2023-04-07T00:30:19.782Z,0.0000
2023-04-07T00:31:21.739Z,0.0000
2023-04-07T00:32:23.712Z,0.0000
2023-04-07T00:33:25.645Z,0.0000
2023-04-07T00:34:27.582Z,0.0000
2023-04-07T00:35:29.441Z,0.0000
2023-04-07T00:36:31.342Z,0.0000
2023-04-07T00:37:33.197Z,0.0000
2023-04-07T00:38:35.087Z,0.0000
2023-04-07T00:39:37.028Z,0.0000
2023-04-07T00:40:38.976Z,0.0000
2023-04-07T00:41:40.855Z,0.0000
2023-04-07T00:42:42.850Z,0.0000
2023-04-07T00:43:44.743Z,0.0000
2023-04-07T00:44:46.677Z,0.0000
2023-04-07T00:45:48.606Z,0.0000
2023-04-07T00:46:50.503Z,0.0000
2023-04-07T00:47:52.559Z,0.0000
2023-04-07T00:48:54.456Z,0.0000
2023-04-07T00:49:56.451Z,0.0000
2023-04-07T00:50:58.326Z,0.0000
2023-04-07T00:52:00.287Z,0.0000
2023-04-07T00:53:02.189Z,0.0000
2023-04-07T00:54:02.517Z,0.0000
2023-04-07T00:55:04.398Z,0.0000
2023-04-07T00:56:06.365Z,0.0000
2023-04-07T00:57:08.256Z,0.0000
2023-04-07T00:58:10.419Z,0.0000
2023-04-07T00:59:12.359Z,0.0000
2023-04-07T01:00:14.291Z,0.0000
2023-04-07T01:01:16.216Z,0.0000
2023-04-07T01:02:18.265Z,0.0000
2023-04-07T01:03:20.630Z,0.0000
2023-04-07T01:04:21.373Z,0.0000
2023-04-07T01:05:23.562Z,0.0000
2023-04-07T01:06:25.494Z,0.0000
2023-04-07T01:07:27.466Z,0.0000
2023-04-07T01:08:29.392Z,0.0000
2023-04-07T01:09:31.295Z,0.0000
2023-04-07T01:10:33.176Z,0.0000
2023-04-07T01:11:35.175Z,0.0000
2023-04-07T01:12:37.173Z,0.0000
2023-04-07T01:13:39.051Z,0.0000
2023-04-07T01:14:40.935Z,0.0000
2023-04-07T01:15:42.841Z,0.0000
2023-04-07T01:16:44.825Z,0.0000
2023-04-07T01:17:46.809Z,0.0000
2023-04-07T01:18:48.785Z,0.0000
2023-04-07T01:19:50.759Z,0.0000
2023-04-07T01:20:52.675Z,0.0000
2023-04-07T01:21:54.599Z,0.0000
2023-04-07T01:22:56.562Z,0.0000
2023-04-07T01:23:58.530Z,0.0000
2023-04-07T01:25:00.483Z,0.0000
2023-04-07T01:26:02.452Z,0.0000
2023-04-07T01:27:04.392Z,0.0000
2023-04-07T01:28:06.309Z,0.0000
2023-04-07T01:29:08.264Z,0.0000
2023-04-07T01:30:10.178Z,0.0000
2023-04-07T01:31:12.119Z,0.0000
2023-04-07T01:32:14.001Z,0.0000
2023-04-07T01:33:15.981Z,0.0000
2023-04-07T01:34:17.866Z,0.0000
2023-04-07T01:35:19.758Z,0.0000
2023-04-07T01:36:21.663Z,0.0000
2023-04-07T01:37:23.665Z,0.0000
2023-04-07T01:38:25.677Z,0.0000
2023-04-07T01:39:27.825Z,0.0000
2023-04-07T01:40:29.749Z,0.0000
2023-04-07T01:41:31.694Z,0.0000
2023-04-07T01:42:33.623Z,0.0000
2023-04-07T01:43:35.574Z,0.0000
2023-04-07T01:44:37.541Z,0.0000
2023-04-07T01:45:44.958Z,0.0000
2023-04-07T01:46:40.167Z,0.0000
2023-04-07T01:47:42.167Z,0.0000
2023-04-07T01:48:44.147Z,0.0000
2023-04-07T01:49:46.066Z,0.0000
2023-04-07T01:50:47.969Z,0.0000
2023-04-07T01:51:49.913Z,0.0000
2023-04-07T01:52:51.791Z,0.0000
2023-04-07T01:53:53.960Z,0.0000
2023-04-07T01:54:54.393Z,0.0000
2023-04-07T01:55:56.306Z,0.0000
2023-04-07T01:56:58.190Z,0.0000
2023-04-07T01:58:00.133Z,0.0000
2023-04-07T01:59:02.019Z,0.0000
2023-04-07T02:00:03.962Z,0.0000
2023-04-07T02:01:05.922Z,0.0000
2023-04-07T02:02:07.910Z,0.0000
2023-04-07T02:03:10.091Z,0.0000
2023-04-07T02:04:10.501Z,0.0000
2023-04-07T02:05:12.370Z,0.0000
2023-04-07T02:06:14.457Z,0.0000
2023-04-07T02:07:16.364Z,0.0000
2023-04-07T02:08:18.265Z,0.0000
2023-04-07T02:09:20.196Z,0.0000
2023-04-07T02:10:22.120Z,0.0000
2023-04-07T02:11:23.987Z,0.0000
2023-04-07T02:12:25.880Z,0.0000
2023-04-07T02:13:27.791Z,0.0000
2023-04-07T02:14:29.791Z,0.0000
2023-04-07T02:15:31.768Z,0.0000
2023-04-07T02:16:33.764Z,0.0000
2023-04-07T02:17:35.689Z,0.0000
2023-04-07T02:18:37.649Z,0.0000
2023-04-07T02:19:39.608Z,0.0000
2023-04-07T02:20:41.551Z,0.0000
2023-04-07T02:21:43.534Z,0.0000
2023-04-07T02:22:45.512Z,0.0000
2023-04-07T02:23:47.440Z,0.0000
2023-04-07T02:24:49.429Z,0.0000
2023-04-07T02:25:51.397Z,0.0000
2023-04-07T02:26:53.353Z,0.0000
2023-04-07T02:27:55.416Z,0.0000
2023-04-07T02:28:57.304Z,0.0000
2023-04-07T02:29:59.294Z,0.0000
2023-04-07T02:31:01.216Z,0.0000
2023-04-07T02:32:03.171Z,0.0000
2023-04-07T02:33:05.411Z,0.0000
2023-04-07T02:34:07.552Z,0.0000
2023-04-07T02:35:09.514Z,0.0000
2023-04-07T02:36:11.457Z,0.0000
2023-04-07T02:37:13.435Z,0.0000
2023-04-07T02:38:15.366Z,0.0000
2023-04-07T02:39:17.317Z,0.0000
2023-04-07T02:40:19.277Z,0.0000
2023-04-07T02:41:21.191Z,0.0000
2023-04-07T02:42:23.246Z,0.0000
2023-04-07T02:43:25.199Z,0.0000
2023-04-07T02:44:27.216Z,0.0000
2023-04-07T02:45:29.166Z,0.0000
2023-04-07T02:46:31.192Z,0.0000
2023-04-07T02:47:33.220Z,0.0000
2023-04-07T02:48:35.215Z,0.0000
2023-04-07T02:49:37.093Z,0.0000
2023-04-07T02:50:39.076Z,0.0000
2023-04-07T02:51:40.978Z,0.0000
2023-04-07T02:52:42.887Z,0.0000
2023-04-07T02:53:44.856Z,0.0000
2023-04-07T02:54:46.763Z,0.0000
2023-04-07T02:55:48.742Z,0.0000
2023-04-07T02:56:50.728Z,0.0000
2023-04-07T02:57:52.724Z,0.0000
2023-04-07T02:58:54.713Z,0.0000
2023-04-07T02:59:56.719Z,0.0000
2023-04-07T03:00:58.730Z,0.0000
2023-04-07T03:02:00.847Z,0.0000
2023-04-07T03:03:03.201Z,0.0000
2023-04-07T03:04:05.692Z,0.0000
2023-04-07T03:05:05.981Z,0.0000
2023-04-07T03:06:08.034Z,0.0000
2023-04-07T03:07:09.984Z,0.0000
2023-04-07T03:08:12.985Z,0.0000
2023-04-07T03:09:13.022Z,0.0000
2023-04-07T03:10:15.047Z,0.0000
2023-04-07T03:11:17.091Z,0.0000
2023-04-07T03:12:19.082Z,0.0000
2023-04-07T03:13:21.070Z,0.0000
2023-04-07T03:14:23.159Z,0.0000
2023-04-07T03:15:25.190Z,0.0000
2023-04-07T03:16:27.369Z,0.0000
2023-04-07T03:17:29.430Z,0.0000
2023-04-07T03:18:31.390Z,0.0000
2023-04-07T03:19:33.382Z,0.0000
2023-04-07T03:20:35.370Z,0.0000
2023-04-07T03:21:37.426Z,0.0000
2023-04-07T03:22:39.381Z,0.0000
2023-04-07T03:23:41.532Z,0.0000
2023-04-07T03:24:43.571Z,0.0000
2023-04-07T03:25:47.444Z,0.0000
2023-04-07T03:26:46.083Z,0.0000
2023-04-07T03:27:48.071Z,0.0000
2023-04-07T03:28:50.049Z,0.0000
2023-04-07T03:29:52.030Z,0.0000
2023-04-07T03:30:54.134Z,0.0000
2023-04-07T03:31:56.078Z,0.0000
2023-04-07T03:32:58.067Z,0.0000
2023-04-07T03:34:00.049Z,0.0000
2023-04-07T03:35:02.046Z,0.0000
2023-04-07T03:36:04.072Z,0.0000
2023-04-07T03:37:06.162Z,0.0000
2023-04-07T03:38:08.558Z,0.0000
2023-04-07T03:39:10.521Z,0.0000
2023-04-07T03:40:12.457Z,0.0000
2023-04-07T03:41:14.500Z,0.0000
2023-04-07T03:42:16.555Z,0.0000
2023-04-07T03:43:18.578Z,0.0000
2023-04-07T03:44:20.600Z,0.0000
2023-04-07T03:45:22.585Z,0.0000
2023-04-07T03:46:24.608Z,0.0000
2023-04-07T03:47:26.780Z,0.0000
2023-04-07T03:48:29.353Z,0.0000
2023-04-07T03:49:29.165Z,0.0000
2023-04-07T03:50:31.122Z,0.0000
2023-04-07T03:51:33.161Z,0.0000
2023-04-07T03:52:35.104Z,0.0000
2023-04-07T03:53:37.148Z,0.0000
2023-04-07T03:54:39.135Z,0.0000
2023-04-07T03:55:41.122Z,0.0000
2023-04-07T03:56:43.087Z,0.0000
2023-04-07T03:57:45.110Z,0.0000
2023-04-07T03:58:47.049Z,0.0000
2023-04-07T03:59:49.050Z,0.0000
2023-04-07T04:00:51.053Z,0.0000
2023-04-07T04:01:53.053Z,0.0000
2023-04-07T04:02:55.222Z,0.0000
2023-04-07T04:03:57.926Z,0.0000
2023-04-07T04:04:59.321Z,0.0000
2023-04-07T04:06:01.434Z,0.0000
2023-04-07T04:07:03.456Z,0.0000
2023-04-07T04:08:05.437Z,0.0000
2023-04-07T04:09:07.438Z,0.0000
2023-04-07T04:10:09.445Z,0.0000
2023-04-07T04:11:11.398Z,0.0000
2023-04-07T04:12:13.500Z,0.0000
2023-04-07T04:13:15.510Z,0.0000
2023-04-07T04:14:17.549Z,0.0000
2023-04-07T04:15:19.600Z,0.0000
2023-04-07T04:16:21.673Z,0.0000
2023-04-07T04:17:23.752Z,0.0000
2023-04-07T04:18:25.941Z,0.0000
2023-04-07T04:19:27.924Z,0.0000
2023-04-07T04:20:29.959Z,0.0000
2023-04-07T04:21:31.975Z,0.0000
2023-04-07T04:22:33.966Z,0.0000
2023-04-07T04:23:35.906Z,0.0000
2023-04-07T04:24:37.902Z,0.0000
2023-04-07T04:25:39.890Z,0.0000
2023-04-07T04:26:41.925Z,0.0000
2023-04-07T04:27:43.933Z,1.4815
2023-04-07T04:28:45.998Z,4.0000
2023-04-07T04:29:48.395Z,3.4074
2023-04-07T04:30:50.416Z,2.0741
2023-04-07T04:31:52.370Z,4.0000
2023-04-07T04:32:54.409Z,5.3333
2023-04-07T04:33:56.537Z,6.0741
2023-04-07T04:34:58.587Z,6.9630
2023-04-07T04:36:00.690Z,8.8889
2023-04-07T04:37:02.789Z,11.1111
2023-04-07T04:38:04.872Z,13.4815
2023-04-07T04:39:06.866Z,15.5556
2023-04-07T04:40:08.896Z,19.4074
2023-04-07T04:41:10.890Z,22.9630
2023-04-07T04:42:12.978Z,27.5556
2023-04-07T04:43:15.051Z,32.0000
2023-04-07T04:44:17.137Z,37.6296
2023-04-07T04:45:19.152Z,43.7037
2023-04-07T04:46:21.148Z,50.3704
2023-04-07T04:47:23.227Z,57.1852
2023-04-07T04:48:25.613Z,64.5926
2023-04-07T04:49:27.616Z,71.1111
2023-04-07T04:50:29.694Z,77.9259
2023-04-07T04:51:31.768Z,84.1481
2023-04-07T04:52:33.751Z,90.3704
2023-04-07T04:53:35.783Z,97.7778
2023-04-07T04:54:37.753Z,107.4074
2023-04-07T04:55:39.747Z,121.1852
2023-04-07T04:56:41.905Z,135.2593
2023-04-07T04:57:43.909Z,145.9259
2023-04-07T04:58:45.899Z,151.8519
2023-04-07T04:59:47.892Z,160.7407
2023-04-07T05:00:49.953Z,168.2963
2023-04-07T05:01:52.073Z,178.3704
2023-04-07T05:02:55.270Z,191.1111
2023-04-07T05:03:55.823Z,205.6923
2023-04-07T05:04:56.645Z,223.6923
2023-04-07T05:05:58.678Z,243.2593
2023-04-07T05:07:00.745Z,262.8148
2023-04-07T05:08:02.810Z,281.0370
2023-04-07T05:09:04.825Z,298.6667
2023-04-07T05:10:06.899Z,319.8518
2023-04-07T05:11:08.828Z,342.9630
2023-04-07T05:12:10.888Z,365.0370
2023-04-07T05:13:12.923Z,386.8148
2023-04-07T05:14:14.936Z,411.1111
2023-04-07T05:15:17.126Z,441.1852
2023-04-07T05:16:19.133Z,477.3333
2023-04-07T05:17:21.239Z,524.5926
2023-04-07T05:18:23.363Z,583.1111
2023-04-07T05:19:25.356Z,655.2593
2023-04-07T05:20:27.329Z,738.6667
2023-04-07T05:21:29.440Z,829.1852
2023-04-07T05:22:29.817Z,922.7692
2023-04-07T05:23:31.880Z,1015.8519
2023-04-07T05:24:33.863Z,1106.6666
2023-04-07T05:25:35.972Z,1190.6666
2023-04-07T05:26:38.001Z,1264.2963
2023-04-07T05:27:39.996Z,1325.4814
2023-04-07T05:28:42.038Z,1376.8889
2023-04-07T05:29:44.129Z,1422.9630
2023-04-07T05:30:46.193Z,1462.9630
2023-04-07T05:31:48.222Z,1497.4814
2023-04-07T05:32:50.350Z,1533.4814
2023-04-07T05:33:52.856Z,1572.2963
2023-04-07T05:34:53.200Z,1611.6923
2023-04-07T05:35:55.207Z,1652.5927
2023-04-07T05:36:57.233Z,1695.1111
2023-04-07T05:37:59.353Z,1736.0000
2023-04-07T05:39:01.369Z,1769.9259
2023-04-07T05:40:03.476Z,1790.5186
2023-04-07T05:41:05.462Z,1800.8889
2023-04-07T05:42:07.457Z,1804.4445
2023-04-07T05:43:09.492Z,1805.0370
2023-04-07T05:44:11.491Z,1806.9630
2023-04-07T05:45:13.551Z,1811.5555
2023-04-07T05:46:15.644Z,1815.8518
2023-04-07T05:47:17.890Z,1818.6666
2023-04-07T05:48:19.870Z,1823.4073
2023-04-07T05:49:21.895Z,1830.8148
2023-04-07T05:50:23.903Z,1844.4445
2023-04-07T05:51:25.962Z,1866.3704
2023-04-07T05:52:27.962Z,1895.4073
2023-04-07T05:53:29.962Z,1927.1111
2023-04-07T05:54:31.951Z,1961.4814
2023-04-07T05:55:33.984Z,1999.8518
2023-04-07T05:56:36.074Z,2042.5186
2023-04-07T05:57:38.075Z,2092.8889
2023-04-07T05:58:40.195Z,2152.8889
2023-04-07T05:59:42.229Z,2216.2964
2023-04-07T06:00:44.262Z,2287.1111
2023-04-07T06:01:46.400Z,2374.2222
2023-04-07T06:02:48.780Z,2477.7778
2023-04-07T06:03:49.422Z,2588.9231
2023-04-07T06:04:51.112Z,2692.1538
2023-04-07T06:05:53.097Z,2787.2593
2023-04-07T06:06:55.197Z,2872.0000
2023-04-07T06:07:57.465Z,2953.7778
2023-04-07T06:08:59.573Z,3037.7778
2023-04-07T06:10:01.631Z,3124.7407
2023-04-07T06:11:03.621Z,3213.1853
2023-04-07T06:12:05.692Z,3309.7778
2023-04-07T06:13:07.754Z,3390.6667
2023-04-07T06:14:09.760Z,3438.0740
2023-04-07T06:15:11.799Z,3499.8518
2023-04-07T06:16:13.877Z,3602.3704
2023-04-07T06:17:16.016Z,3750.5186
2023-04-07T06:18:18.006Z,3914.3704
2023-04-07T06:19:20.058Z,4057.6296
2023-04-07T06:20:22.065Z,4223.4072
2023-04-07T06:21:24.103Z,4437.1851
2023-04-07T06:22:26.189Z,4675.5557
2023-04-07T06:23:28.234Z,4915.4072
2023-04-07T06:24:30.230Z,5149.3335
2023-04-07T06:25:32.233Z,5349.1851
2023-04-07T06:26:34.228Z,5496.2964
2023-04-07T06:27:36.210Z,5620.7407
2023-04-07T06:28:38.188Z,5735.8521
2023-04-07T06:29:40.159Z,5814.2222
2023-04-07T06:30:42.194Z,5850.9629
2023-04-07T06:31:44.208Z,5840.5928
2023-04-07T06:32:46.477Z,5789.9258
2023-04-07T06:33:48.803Z,5735.4072
2023-04-07T06:34:49.070Z,5688.1538
2023-04-07T06:35:51.101Z,5668.5928
2023-04-07T06:36:53.167Z,5672.8887
2023-04-07T06:37:55.239Z,5705.3335
2023-04-07T06:38:57.389Z,5754.5186
2023-04-07T06:39:59.429Z,5816.5928
2023-04-07T06:41:01.544Z,5894.0742
2023-04-07T06:42:03.591Z,5981.3335
2023-04-07T06:43:05.610Z,6097.7778
2023-04-07T06:44:09.189Z,6237.0371
2023-04-07T06:45:09.512Z,6344.9229
2023-04-07T06:46:11.575Z,6453.0371
2023-04-07T06:47:13.688Z,6597.1851
2023-04-07T06:48:15.711Z,6730.8149
2023-04-07T06:49:17.761Z,6879.8521
2023-04-07T06:50:19.776Z,7010.3706
2023-04-07T06:51:21.857Z,7099.8521
2023-04-07T06:52:24.045Z,7147.7036
2023-04-07T06:53:26.086Z,7149.4814
2023-04-07T06:54:28.215Z,7106.9629
2023-04-07T06:55:28.972Z,7024.7690
2023-04-07T06:56:31.013Z,6919.5557
2023-04-07T06:57:33.158Z,6794.2222
2023-04-07T06:58:35.189Z,6670.9629
2023-04-07T06:59:37.349Z,6557.1851
2023-04-07T07:00:39.416Z,6464.5928
2023-04-07T07:01:41.475Z,6403.1113
2023-04-07T07:02:43.885Z,6358.3706
2023-04-07T07:03:46.193Z,6329.3335
2023-04-07T07:04:46.617Z,6322.6152
2023-04-07T07:05:50.487Z,6342.5186
2023-04-07T07:06:50.694Z,6383.5386
2023-04-07T07:07:52.814Z,6436.8887
2023-04-07T07:08:54.829Z,6504.7407
2023-04-07T07:09:54.982Z,6576.0000
2023-04-07T07:10:57.133Z,6644.1479
2023-04-07T07:11:59.141Z,6708.0000
2023-04-07T07:13:01.161Z,6753.6294
2023-04-07T07:14:03.204Z,6782.0742
2023-04-07T07:15:05.283Z,6791.1113
2023-04-07T07:16:07.350Z,6788.5928
2023-04-07T07:17:09.571Z,6781.3335
2023-04-07T07:18:11.611Z,6775.5557
2023-04-07T07:19:13.720Z,6769.9258
2023-04-07T07:20:15.857Z,6759.1113
2023-04-07T07:21:17.944Z,6735.2593
2023-04-07T07:22:19.965Z,6700.2964
2023-04-07T07:23:22.013Z,6679.8521
2023-04-07T07:24:24.066Z,6655.1113
2023-04-07T07:25:26.126Z,6626.0742
2023-04-07T07:26:28.172Z,6590.8149
2023-04-07T07:27:30.268Z,6557.0371
2023-04-07T07:28:32.279Z,6519.8521
2023-04-07T07:29:34.332Z,6481.6294
2023-04-07T07:30:35.051Z,6448.3076
2023-04-07T07:31:37.139Z,6413.4814
2023-04-07T07:32:39.585Z,6345.1851
2023-04-07T07:33:41.684Z,6232.7407
2023-04-07T07:34:43.772Z,6073.9258
2023-04-07T07:35:45.839Z,5874.3706
2023-04-07T07:36:47.823Z,5659.2593
2023-04-07T07:37:49.886Z,5441.6294
2023-04-07T07:38:51.862Z,5220.1479
2023-04-07T07:39:53.845Z,4997.9258
2023-04-07T07:40:55.904Z,4771.2593
2023-04-07T07:41:57.977Z,4561.9258
2023-04-07T07:43:00.016Z,4390.9629
2023-04-07T07:44:02.005Z,4266.8149
2023-04-07T07:45:03.992Z,4192.0000
2023-04-07T07:46:06.028Z,4169.1851
2023-04-07T07:47:08.045Z,4183.5557
2023-04-07T07:48:10.074Z,4218.9629
2023-04-07T07:49:12.110Z,4269.4814
2023-04-07T07:50:14.809Z,4334.6665
2023-04-07T07:51:14.704Z,4416.6152
2023-04-07T07:52:16.692Z,4515.8521
2023-04-07T07:53:18.753Z,4641.6294
2023-04-07T07:54:20.725Z,4785.1851
2023-04-07T07:55:22.743Z,4939.5557
2023-04-07T07:56:24.852Z,5099.7036
2023-04-07T07:57:26.894Z,5257.9258
2023-04-07T07:58:29.016Z,5408.0000
2023-04-07T07:59:31.092Z,5549.0371
2023-04-07T08:00:33.195Z,5671.4072
2023-04-07T08:01:35.338Z,5762.9629
2023-04-07T08:02:37.427Z,5837.6294
2023-04-07T08:03:39.730Z,5879.5557
2023-04-07T08:04:39.977Z,5869.3848
2023-04-07T08:05:42.123Z,5813.6294
2023-04-07T08:06:44.181Z,5730.3706
2023-04-07T08:07:46.302Z,5649.6294
2023-04-07T08:08:48.337Z,5609.1851
2023-04-07T08:09:50.317Z,5628.2964
2023-04-07T08:10:52.340Z,5694.2222
2023-04-07T08:11:54.339Z,5792.2964
2023-04-07T08:12:56.669Z,5900.7407
2023-04-07T08:13:58.736Z,6012.8887
2023-04-07T08:15:00.824Z,6163.2593
2023-04-07T08:16:02.985Z,6346.2222
2023-04-07T08:17:05.093Z,6574.0742
2023-04-07T08:18:05.933Z,6812.0000
2023-04-07T08:19:08.067Z,7013.0371
2023-04-07T08:20:10.108Z,7181.7778
2023-04-07T08:21:12.195Z,7340.0000
2023-04-07T08:22:14.524Z,7499.2593
2023-04-07T08:23:16.582Z,7655.7036
2023-04-07T08:24:18.681Z,7814.2222
2023-04-07T08:25:20.794Z,7971.1113
2023-04-07T08:26:22.894Z,8122.0742
2023-04-07T08:27:25.044Z,8281.4814
2023-04-07T08:28:28.091Z,8466.0742
2023-04-07T08:29:28.237Z,8679.2305
2023-04-07T08:30:28.375Z,8919.3604
2023-04-07T08:31:30.528Z,9175.5557
2023-04-07T08:32:32.681Z,9446.9629
2023-04-07T08:33:34.747Z,9706.6670
2023-04-07T08:34:36.792Z,9972.2959
2023-04-07T08:35:38.885Z,10253.0371
2023-04-07T08:36:42.454Z,10549.9258
2023-04-07T08:37:41.561Z,10861.7598
2023-04-07T08:38:43.651Z,11160.4443
2023-04-07T08:39:45.702Z,11466.0742
2023-04-07T08:40:47.744Z,11754.0742
2023-04-07T08:41:49.798Z,12019.4072
2023-04-07T08:42:51.898Z,12260.5928
2023-04-07T08:43:53.887Z,12444.7412
2023-04-07T08:44:55.882Z,12562.5186
2023-04-07T08:45:57.855Z,12693.0371
2023-04-07T08:46:59.983Z,12871.2588
2023-04-07T08:48:02.072Z,13083.4072
2023-04-07T08:49:04.213Z,13282.0742
2023-04-07T08:50:06.230Z,13410.8145
2023-04-07T08:51:08.313Z,13408.8887
2023-04-07T08:52:10.392Z,13271.8516
2023-04-07T08:53:12.452Z,13002.3701
2023-04-07T08:54:14.583Z,12568.4443
2023-04-07T08:55:16.565Z,12105.4814
2023-04-07T08:56:18.693Z,11645.3330
2023-04-07T08:57:20.705Z,11194.0742
2023-04-07T08:58:22.751Z,10869.0371
2023-04-07T08:59:24.788Z,10752.1484
2023-04-07T09:00:26.813Z,10869.7773
2023-04-07T09:01:28.855Z,11248.4443
2023-04-07T09:02:31.171Z,11872.2959
2023-04-07T09:03:33.438Z,12656.0000
2023-04-07T09:04:35.621Z,13506.8145
2023-04-07T09:05:37.688Z,14352.2959
2023-04-07T09:06:39.703Z,15142.9629
2023-04-07T09:07:41.725Z,15792.7412
2023-04-07T09:08:43.754Z,16221.1855
2023-04-07T09:09:45.728Z,16490.8145
2023-04-07T09:10:47.718Z,16614.0742
2023-04-07T09:11:49.718Z,16840.2969
2023-04-07T09:12:51.755Z,17474.3711
2023-04-07T09:13:53.730Z,18226.9629
2023-04-07T09:14:55.729Z,18855.1113
2023-04-07T09:15:57.744Z,19228.4453
2023-04-07T09:16:59.842Z,19508.1484
2023-04-07T09:18:02.063Z,19689.4824
2023-04-07T09:19:04.093Z,19668.1484
2023-04-07T09:20:06.168Z,19432.2969
2023-04-07T09:21:08.341Z,19342.2227
2023-04-07T09:22:10.325Z,18992.5918
2023-04-07T09:23:12.348Z,18539.8516
2023-04-07T09:24:14.646Z,18049.1855
2023-04-07T09:25:16.665Z,17820.4453
2023-04-07T09:26:18.603Z,17447.1113
2023-04-07T09:27:20.549Z,17163.7031
2023-04-07T09:28:22.618Z,17057.6289
2023-04-07T09:29:24.859Z,16430.9629
2023-04-07T09:30:26.903Z,16021.1855
2023-04-07T09:31:28.988Z,16730.8145
2023-04-07T09:32:30.989Z,16933.1855
2023-04-07T09:33:33.088Z,16567.8516
2023-04-07T09:34:35.104Z,16543.2598
2023-04-07T09:35:37.090Z,16476.2969
2023-04-07T09:36:39.161Z,16261.7773
2023-04-07T09:37:41.174Z,16205.9258
2023-04-07T09:38:43.191Z,16364.5928
2023-04-07T09:39:45.195Z,16796.0000
2023-04-07T09:40:47.221Z,17068.1484
2023-04-07T09:41:49.244Z,17028.7402
2023-04-07T09:42:51.285Z,17726.5176
2023-04-07T09:43:53.283Z,17938.9629
2023-04-07T09:44:55.333Z,16852.4453
2023-04-07T09:45:57.340Z,15510.8145
2023-04-07T09:46:59.378Z,14778.6670
2023-04-07T09:48:00.279Z,14964.9229
2023-04-07T09:49:02.328Z,14982.9629
2023-04-07T09:50:04.275Z,13358.3701
2023-04-07T09:51:06.362Z,12854.0742
2023-04-07T09:52:08.409Z,14137.4814
2023-04-07T09:53:10.462Z,15372.7412
2023-04-07T09:54:12.529Z,15277.7773
2023-04-07T09:55:14.521Z,14481.4814
2023-04-07T09:56:16.570Z,14789.6299
2023-04-07T09:57:18.674Z,14667.7041
2023-04-07T09:58:20.676Z,13113.9258
2023-04-07T09:59:22.707Z,12122.9629
2023-04-07T10:00:24.733Z,12258.5186
2023-04-07T10:01:25.481Z,12274.9229
2023-04-07T10:02:27.649Z,11579.1113
2023-04-07T10:03:29.957Z,10625.9258
2023-04-07T10:04:32.315Z,9646.2227
2023-04-07T10:05:34.391Z,9967.2588
2023-04-07T10:06:36.463Z,12180.4443
2023-04-07T10:07:39.334Z,15242.5186
2023-04-07T10:08:40.310Z,16801.2793
2023-04-07T10:09:42.272Z,17938.9629
2023-04-07T10:10:44.332Z,18730.6660
2023-04-07T10:11:46.401Z,19102.8145
2023-04-07T10:12:48.408Z,19194.0742
2023-04-07T10:13:50.612Z,18895.4082
2023-04-07T10:14:52.644Z,18336.0000
2023-04-07T10:15:54.631Z,18395.2598
2023-04-07T10:16:56.696Z,19126.5176
2023-04-07T10:17:58.719Z,18978.3711
2023-04-07T10:19:00.766Z,18896.5918
2023-04-07T10:20:02.794Z,18200.8887
2023-04-07T10:21:04.795Z,17519.4082
2023-04-07T10:22:06.818Z,18856.2969
2023-04-07T10:23:08.821Z,19799.7031
2023-04-07T10:24:10.840Z,19714.3711
2023-04-07T10:25:12.890Z,19483.2598
2023-04-07T10:26:14.917Z,19687.1113
2023-04-07T10:27:16.968Z,19893.3340
2023-04-07T10:28:18.915Z,19991.7031
2023-04-07T10:29:20.994Z,20150.5176
2023-04-07T10:30:22.989Z,20359.1113
2023-04-07T10:31:25.016Z,20572.4453
2023-04-07T10:32:27.132Z,20741.9258
2023-04-07T10:33:29.131Z,20888.8887
2023-04-07T10:34:31.172Z,20954.0742
2023-04-07T10:35:33.168Z,20963.5547
2023-04-07T10:36:33.995Z,20920.6152
2023-04-07T10:37:36.027Z,20820.1484
2023-04-07T10:38:37.996Z,20655.4082
2023-04-07T10:39:39.990Z,20423.1113
2023-04-07T10:40:42.056Z,20129.1855
2023-04-07T10:41:44.097Z,19936.0000
2023-04-07T10:42:46.101Z,19881.4824
2023-04-07T10:43:48.201Z,19857.7773
2023-04-07T10:44:48.279Z,19830.1543
2023-04-07T10:45:50.284Z,19768.8887
2023-04-07T10:46:52.367Z,19698.9629
2023-04-07T10:47:54.363Z,19623.1113
2023-04-07T10:48:56.428Z,19585.1855
2023-04-07T10:49:58.460Z,19535.4082
2023-04-07T10:51:00.478Z,19485.6289
2023-04-07T10:52:02.495Z,19402.6660
2023-04-07T10:53:04.500Z,19290.0742
2023-04-07T10:54:06.559Z,19176.2969
2023-04-07T10:55:08.586Z,19165.6289
2023-04-07T10:56:10.667Z,19164.4453
2023-04-07T10:57:12.676Z,19227.2598
2023-04-07T10:58:14.671Z,19351.7031
2023-04-07T10:59:16.709Z,19529.4824
2023-04-07T11:00:18.760Z,19703.7031
2023-04-07T11:01:20.841Z,19815.1113
2023-04-07T11:02:23.243Z,20062.8145
2023-04-07T11:03:24.058Z,20412.3086
2023-04-07T11:04:24.549Z,20318.7695
2023-04-07T11:05:24.593Z,20057.8457
2023-04-07T11:06:26.722Z,19696.5918
2023-04-07T11:07:28.716Z,19213.0371
2023-04-07T11:08:30.829Z,18993.7773
2023-04-07T11:09:32.866Z,18716.4453
2023-04-07T11:10:34.927Z,18331.2598
2023-04-07T11:11:37.041Z,17754.0742
2023-04-07T11:12:39.137Z,17306.0742
2023-04-07T11:13:41.277Z,16885.0371
2023-04-07T11:14:43.370Z,16631.5547
2023-04-07T11:15:45.565Z,16429.4824
2023-04-07T11:16:47.634Z,16258.9629
2023-04-07T11:17:49.711Z,16014.3701
2023-04-07T11:18:51.777Z,15607.1113
2023-04-07T11:19:53.964Z,14850.5186
2023-04-07T11:20:56.051Z,14589.6299
2023-04-07T11:21:58.152Z,14274.8145
2023-04-07T11:23:00.302Z,13412.2959
2023-04-07T11:24:02.419Z,12254.3701
2023-04-07T11:25:04.488Z,12292.4443
2023-04-07T11:26:06.690Z,12103.4072
2023-04-07T11:27:08.798Z,11480.5928
2023-04-07T11:28:10.908Z,10909.7773
2023-04-07T11:29:13.049Z,10389.1855
2023-04-07T11:30:15.256Z,10625.9258
2023-04-07T11:31:17.374Z,10338.8145
2023-04-07T11:32:19.616Z,10403.5557
2023-04-07T11:33:21.795Z,10269.1855
2023-04-07T11:34:23.902Z,9601.9258
2023-04-07T11:35:26.084Z,10586.5186
2023-04-07T11:36:28.191Z,10882.5186
2023-04-07T11:37:30.315Z,10462.6670
2023-04-07T11:38:32.412Z,9117.9258
2023-04-07T11:39:34.576Z,8430.9629
2023-04-07T11:40:36.702Z,7846.6665
2023-04-07T11:41:38.832Z,8505.0371
2023-04-07T11:42:40.970Z,8813.6299
2023-04-07T11:43:43.259Z,8827.8516
2023-04-07T11:44:45.430Z,8399.8516
2023-04-07T11:45:47.553Z,7792.0000
2023-04-07T11:46:49.759Z,7762.5186
2023-04-07T11:47:51.958Z,7456.2964
2023-04-07T11:48:54.275Z,7269.3335
2023-04-07T11:49:56.398Z,7038.0742
2023-04-07T11:50:58.550Z,6712.1479
2023-04-07T11:52:00.727Z,6556.7407
2023-04-07T11:53:02.935Z,6489.4814
2023-04-07T11:54:05.201Z,6417.0371
2023-04-07T11:55:07.351Z,6290.3706
2023-04-07T11:56:09.481Z,6101.1851
2023-04-07T11:57:11.694Z,5945.0371
2023-04-07T11:58:13.906Z,5785.1851
2023-04-07T11:59:16.092Z,5639.4072
2023-04-07T12:00:18.279Z,5492.2964
2023-04-07T12:01:20.463Z,5353.4814
2023-04-07T12:02:22.704Z,5244.5928
2023-04-07T12:03:25.246Z,5135.7036
2023-04-07T12:04:25.864Z,5024.4614
2023-04-07T12:05:28.210Z,4895.5557
2023-04-07T12:06:30.450Z,4794.3706
2023-04-07T12:07:32.620Z,4794.2222